Oriana — ZCDU9 — position and weather

sailwx.info

Track history (hours):
 
Tides and Currents Weather Stations Pressure Air Temp Water Temp Dewpoint Dewpoint Depression Visibility Wind Speed Wind Dir Waves Ship Positions

Oriana (Bermuda)

Last reported at 2017-Aug-16 03:00 UTC. Time now 2017-Aug-16 21:38 UTC.
Position N 63°36' W 022°36'.

Length 261 m; beam 32.2 m; draft 8.2 m.

Type: Ship. MMSI: 310529000.

Wind from 020 at 8 knots

Barometer 1002.5 mb
Air temperature 11.2 ° C
Visibility: greater than 10.8 NM
Dewpoint 8.8 ° C
Water temperature 11.0 ° C

Date/timePositionNaut miles runAvg speedWind from/ knotsBaromVisibWave heightAir tempDewpointWater temp
2017-Aug-16 03:00N 63°36' W 022°36'6716.8 020 / 81002.510.8 11.2 8.811.0
2017-Aug-15 23:00N 63°00' W 020°30'14918.6 070 / 141002.510.8 11.5 9.512.0
2017-Aug-15 15:00N 61°36' W 016°06'41310.3 190 / 51003.310.8 12.010.112.0
2017-Aug-13 23:00N 56°19' W 007°34'1120.0
2017-Aug-13 22:28N 56°09' W 007°31'1020.6
2017-Aug-13 22:00N 56°02' W 007°19'1020.3
2017-Aug-13 21:30N 55°54' W 007°07'1020.2
2017-Aug-13 21:00N 55°47' W 006°55'1020.7
2017-Aug-13 20:30N 55°39' W 006°42'1121.2
2017-Aug-13 20:00N 55°32' W 006°29'1121.9
2017-Aug-13 19:30N 55°26' W 006°12'1121.9
2017-Aug-13 19:00N 55°20' W 005°57'1223.3
2017-Aug-13 18:30N 55°10' W 005°46'1122.6
2017-Aug-13 18:00N 55°00' W 005°37'1121.5
2017-Aug-13 17:30N 54°49' W 005°36'917.4
2017-Aug-13 17:00N 54°42' W 005°44'611.0
2017-Aug-13 16:28N 54°38' W 005°52'2 2.8
2017-Aug-13 15:52N 54°37' W 005°54'0 0.0
2017-Aug-13 15:25N 54°37' W 005°54'0 0.0
2017-Aug-13 14:43N 54°37' W 005°54'0 0.0
2017-Aug-13 14:25N 54°37' W 005°54'0 0.0
2017-Aug-13 11:40N 54°37' W 005°54'0 0.0
2017-Aug-13 10:48N 54°37' W 005°54'0 0.0
2017-Aug-13 10:27N 54°37' W 005°54'0 0.0
2017-Aug-13 08:42N 54°37' W 005°54'0 0.0
2017-Aug-13 08:12N 54°37' W 005°54'0 0.0
2017-Aug-13 08:00N 54°37' W 005°54'0 0.0
2017-Aug-13 07:27N 54°37' W 005°54'0 0.0
2017-Aug-13 06:45N 54°37' W 005°54'0 0.6
2017-Aug-13 06:25N 54°37' W 005°54'3 6.1
2017-Aug-13 06:00N 54°39' W 005°51'510.7
2017-Aug-13 05:30N 54°42' W 005°44'612.8
2017-Aug-13 05:01N 54°44' W 005°34'714.5
2017-Aug-13 04:31N 54°42' W 005°22'918.0
2017-Aug-13 04:01N 54°33' W 005°16'917.2
2017-Aug-13 03:31N 54°25' W 005°13'816.8
2017-Aug-13 03:00N 54°16' W 005°13'816.7
2017-Aug-13 02:31N 54°08' W 005°15'815.7
2017-Aug-13 02:00N 54°00' W 005°15'612.5
2017-Aug-13 01:30N 53°54' W 005°16'6715.7
2017-Aug-12 21:13N 52°47' W 005°32'618.8
2017-Aug-12 20:55N 52°42' W 005°33'1018.8
2017-Aug-12 20:23N 52°32' W 005°36'1017.7
2017-Aug-12 19:50N 52°22' W 005°37'817.0
2017-Aug-12 19:21N 52°14' W 005°38'716.6
2017-Aug-12 18:57N 52°08' W 005°41'816.1
2017-Aug-12 18:27N 51°60' W 005°44'815.9
2017-Aug-12 17:58N 51°52' W 005°46'2116.3
2017-Aug-12 16:42N 51°32' W 005°53'316.5
2017-Aug-12 16:30N 51°29' W 005°53'916.5
2017-Aug-12 15:57N 51°20' W 005°53'4216.7
2017-Aug-12 13:27N 50°38' W 005°53'1116.5
2017-Aug-12 12:48N 50°27' W 005°53'516.1
2017-Aug-12 12:30N 50°22' W 005°53'714.7
2017-Aug-12 12:01N 50°15' W 005°53'611.4
2017-Aug-12 11:28N 50°09' W 005°53'511.0
2017-Aug-12 11:00N 50°04' W 005°53'49 9.9
2017-Aug-12 06:03N 49°54' W 004°39'112.0
2017-Aug-12 06:00N 49°54' W 004°38'612.1
2017-Aug-12 05:29N 49°54' W 004°29'812.5
2017-Aug-12 04:52N 49°55' W 004°17'512.9
2017-Aug-12 04:30N 49°56' W 004°09'713.3
2017-Aug-12 04:00N 49°56' W 003°59'713.8
2017-Aug-12 03:31N 49°57' W 003°49'713.7
2017-Aug-12 03:01N 49°58' W 003°38'713.7
2017-Aug-12 02:31N 49°58' W 003°27'713.4
2017-Aug-12 02:00N 49°59' W 003°17'713.1
2017-Aug-12 01:31N 49°60' W 003°07'612.6
2017-Aug-12 01:00N 50°01' W 002°57'612.0
2017-Aug-12 00:30N 50°02' W 002°48'611.4
2017-Aug-12 00:00N 50°04' W 002°39'610.5
2017-Aug-11 23:24N 50°06' W 002°30'15 9.2
2017-Aug-11 21:44N 50°13' W 002°09'2 9.3
2017-Aug-11 21:30N 50°15' W 002°07'1710.2
2017-Aug-11 19:50N 50°28' W 001°50'411.2
2017-Aug-11 19:30N 50°31' W 001°47'611.6
2017-Aug-11 19:01N 50°35' W 001°41'612.4
2017-Aug-11 18:30N 50°40' W 001°36'715.0
2017-Aug-11 18:01N 50°44' W 001°26'612.8
2017-Aug-11 17:30N 50°48' W 001°18'510.3
2017-Aug-11 17:00N 50°52' W 001°23'3 6.1
2017-Aug-11 16:30N 50°54' W 001°26'0 0.6
2017-Aug-11 15:55N 50°54' W 001°26'0 0.0
2017-Aug-11 15:25N 50°54' W 001°26'0 0.0
2017-Aug-11 14:55N 50°54' W 001°26'0 0.0
2017-Aug-11 13:58N 50°54' W 001°26'0 0.0
2017-Aug-11 13:22N 50°54' W 001°26'0 0.0
2017-Aug-11 12:55N 50°54' W 001°26'0 0.0
2017-Aug-11 12:25N 50°54' W 001°26'0 0.0
2017-Aug-11 11:55N 50°54' W 001°26'0 0.0
2017-Aug-11 11:19N 50°54' W 001°26'0 0.0
2017-Aug-11 10:55N 50°54' W 001°26'0 0.0
2017-Aug-11 10:25N 50°54' W 001°26'0 0.0
2017-Aug-11 09:55N 50°54' W 001°26'0 0.0
2017-Aug-11 09:25N 50°54' W 001°26'0 0.0
2017-Aug-11 08:49N 50°54' W 001°26'0 0.0
2017-Aug-11 08:13N 50°54' W 001°26'0 0.0
2017-Aug-11 07:58N 50°54' W 001°26'0 0.0
2017-Aug-11 07:16N 50°54' W 001°26'0 0.0
2017-Aug-11 06:55N 50°54' W 001°26'0 0.0
2017-Aug-11 06:25N 50°54' W 001°26'0 0.0
2017-Aug-11 05:55N 50°54' W 001°26'0 0.0
2017-Aug-11 05:25N 50°54' W 001°26'0 0.0
2017-Aug-11 05:00N 50°54' W 001°26'3 5.5
2017-Aug-11 04:31N 50°52' W 001°23'510.8
2017-Aug-11 04:01N 50°48' W 001°18'510.9
2017-Aug-11 03:31N 50°46' W 001°10'816.6
2017-Aug-11 03:01N 50°42' W 000°58'510.0
2017-Aug-11 02:31N 50°37' W 000°59'713.9
2017-Aug-11 02:00N 50°31' W 001°03'510.6
2017-Aug-11 01:30N 50°28' W 001°11'610.5
2017-Aug-11 00:59N 50°26' W 001°18'610.8
2017-Aug-11 00:23N 50°23' W 001°27'411.6
2017-Aug-11 00:00N 50°22' W 001°34'912.5
2017-Aug-10 23:17N 50°20' W 001°48'413.0
2017-Aug-10 23:00N 50°19' W 001°53'812.9
2017-Aug-10 22:24N 50°16' W 002°05'410.2
2017-Aug-10 22:00N 50°12' W 002°05'510.3
2017-Aug-10 21:30N 50°07' W 002°05'611.3
2017-Aug-10 21:00N 50°01' W 002°07'612.7
2017-Aug-10 20:30N 49°58' W 002°16'713.2
2017-Aug-10 19:59N 49°56' W 002°26'612.5
2017-Aug-10 19:31N 49°55' W 002°35'612.0
2017-Aug-10 19:00N 49°53' W 002°44'611.6
2017-Aug-10 18:30N 49°51' W 002°52'611.3
2017-Aug-10 18:00N 49°49' W 003°01'5 9.8
2017-Aug-10 17:30N 49°45' W 003°04'5 9.7
2017-Aug-10 17:00N 49°40' W 003°04'5 9.6
2017-Aug-10 16:30N 49°35' W 003°04'5 9.1
2017-Aug-10 16:01N 49°31' W 003°04'5 9.1
2017-Aug-10 15:30N 49°26' W 003°04'9 0.7
2017-Aug-10 02:58N 49°18' W 003°08'611.4
2017-Aug-10 02:28N 49°18' W 003°17'810.8
2017-Aug-10 01:46N 49°18' W 003°29'2010.3
2017-Aug-09 23:49N 49°18' W 003°59'3 9.2
2017-Aug-09 23:29N 49°18' W 004°04'5 9.2
2017-Aug-09 22:59N 49°17' W 004°11'82 8.0
2017-Aug-09 12:48N 49°58' W 006°01'511.5
2017-Aug-09 12:21N 50°03' W 006°01'511.9
2017-Aug-09 11:57N 50°08' W 006°01'712.0
2017-Aug-09 11:23N 50°15' W 006°01'512.2
2017-Aug-09 11:00N 50°19' W 006°01'612.1
2017-Aug-09 10:30N 50°25' W 006°01'612.0
2017-Aug-09 09:58N 50°32' W 006°01'511.7
2017-Aug-09 09:30N 50°37' W 006°01'611.7
2017-Aug-09 09:00N 50°43' W 006°01'611.5
2017-Aug-09 08:29N 50°49' W 006°01'511.3
2017-Aug-09 08:00N 50°54' W 006°01'711.0
2017-Aug-09 07:20N 51°02' W 006°01'38 8.4
2017-Aug-09 02:53N 51°31' W 006°38'411.5
2017-Aug-09 02:30N 51°31' W 006°45'610.3
2017-Aug-09 01:55N 51°29' W 006°54'18 8.1
2017-Aug-08 23:42N 51°14' W 007°10'210.9
2017-Aug-08 23:30N 51°14' W 007°13'364706.0
2017-Aug-08 23:00N 57°18' W 007°36'3642598.3 340 / 221019.210.8 14.511.716.0
2017-Aug-08 22:51N 51°14' W 007°25'410.5
2017-Aug-08 22:30N 51°16' W 007°30'611.5
2017-Aug-08 22:00N 51°20' W 007°36'611.6
2017-Aug-08 21:30N 51°25' W 007°42'611.4
2017-Aug-08 21:00N 51°29' W 007°48'611.5
2017-Aug-08 20:30N 51°33' W 007°55'611.5
2017-Aug-08 20:00N 51°37' W 008°02'611.5
2017-Aug-08 19:30N 51°41' W 008°08'611.7
2017-Aug-08 19:00N 51°45' W 008°15'511.0
2017-Aug-08 18:31N 51°50' W 008°16'2 3.0
2017-Aug-08 18:00N 51°51' W 008°18'0 0.0
2017-Aug-08 17:30N 51°51' W 008°18'0 0.0
2017-Aug-08 17:00N 51°51' W 008°18'0 0.0
2017-Aug-08 16:30N 51°51' W 008°18'0 0.0
2017-Aug-08 15:59N 51°51' W 008°18'0 0.0
2017-Aug-08 15:29N 51°51' W 008°18'0 0.0
2017-Aug-08 14:59N 51°51' W 008°18'0 0.0
2017-Aug-08 14:28N 51°51' W 008°18'0 0.0
2017-Aug-08 13:58N 51°51' W 008°18'0 0.0
2017-Aug-08 13:28N 51°51' W 008°18'0 0.0
2017-Aug-08 12:58N 51°51' W 008°18'0 0.0
2017-Aug-08 12:28N 51°51' W 008°18'0 0.0
2017-Aug-08 11:58N 51°51' W 008°18'0 0.0
2017-Aug-08 11:28N 51°51' W 008°18'0 0.0
2017-Aug-08 10:58N 51°51' W 008°18'0 0.0
2017-Aug-08 10:28N 51°51' W 008°18'0 0.0
2017-Aug-08 09:58N 51°51' W 008°18'0 0.0
2017-Aug-08 09:28N 51°51' W 008°18'0 0.0
2017-Aug-08 09:00N 51°51' W 008°18'0 0.0
2017-Aug-08 08:27N 51°51' W 008°18'0 0.0
2017-Aug-08 07:54N 51°51' W 008°18'0 0.0
2017-Aug-08 07:30N 51°51' W 008°18'2 3.2
2017-Aug-08 07:00N 51°50' W 008°16'612.0
2017-Aug-08 06:31N 51°44' W 008°15'4 8.9
2017-Aug-08 06:00N 51°42' W 008°09'714.8
2017-Aug-08 05:30N 51°44' W 007°57'816.5
2017-Aug-08 05:00N 51°46' W 007°44'816.5
2017-Aug-08 04:30N 51°48' W 007°31'816.3
2017-Aug-08 04:00N 51°50' W 007°19'816.1
2017-Aug-08 03:30N 51°52' W 007°06'816.6
2017-Aug-08 03:00N 51°54' W 006°53'816.9
2017-Aug-08 02:30N 51°57' W 006°40'1017.3
2017-Aug-08 01:54N 52°02' W 006°25'818.8
2017-Aug-08 01:30N 52°06' W 006°15'1122.0
2017-Aug-08 01:00N 52°15' W 006°04'1322.1
2017-Aug-08 00:26N 52°26' W 005°54'1021.4
2017-Aug-07 23:59N 52°35' W 005°48'1020.5
2017-Aug-07 23:29N 52°44' W 005°43'76 3.0
2017-Aug-06 22:11N 53°60' W 005°24'628.4
2017-Aug-06 22:00N 53°54' W 005°24'1255.3 220 / 291014.810.8 14.511.714.0
2017-Aug-06 21:46N 54°06' W 005°19'412.1
2017-Aug-06 21:27N 54°09' W 005°16'612.7
2017-Aug-06 21:00N 54°15' W 005°15'713.1
2017-Aug-06 20:31N 54°21' W 005°14'713.5
2017-Aug-06 20:01N 54°28' W 005°14'713.8
2017-Aug-06 19:30N 54°35' W 005°16'714.1
2017-Aug-06 19:00N 54°42' W 005°19'612.4
2017-Aug-06 18:30N 54°44' W 005°29'612.9
2017-Aug-06 18:00N 54°43' W 005°40'510.5
2017-Aug-06 17:31N 54°41' W 005°49'5 7.9
2017-Aug-06 16:54N 54°37' W 005°54'0 0.0
2017-Aug-06 16:12N 54°37' W 005°54'0 0.0
2017-Aug-06 16:00N 54°37' W 005°54'0 0.0
2017-Aug-06 15:24N 54°37' W 005°54'0 0.0
2017-Aug-06 14:54N 54°37' W 005°54'0 0.0
2017-Aug-06 14:30N 54°37' W 005°54'0 0.0
2017-Aug-06 13:56N 54°37' W 005°54'0 0.0
2017-Aug-06 13:29N 54°37' W 005°54'0 0.0
2017-Aug-06 13:00N 54°37' W 005°54'0 0.0
2017-Aug-06 12:28N 54°37' W 005°54'0 0.0
2017-Aug-06 11:56N 54°37' W 005°54'0 0.0
2017-Aug-06 11:27N 54°37' W 005°54'0 0.0
2017-Aug-06 10:59N 54°37' W 005°54'0 0.0
2017-Aug-06 10:24N 54°37' W 005°54'0 0.0
2017-Aug-06 09:54N 54°37' W 005°54'0 0.0
2017-Aug-06 09:11N 54°37' W 005°54'0 0.0
2017-Aug-06 09:00N 54°37' W 005°54'0 0.0
2017-Aug-06 08:29N 54°37' W 005°54'0 0.0
2017-Aug-06 07:46N 54°37' W 005°54'0 0.0
2017-Aug-06 07:25N 54°37' W 005°54'0 0.0
2017-Aug-06 06:57N 54°37' W 005°54'0 0.5
2017-Aug-06 06:24N 54°37' W 005°54'1 1.5
2017-Aug-06 06:00N 54°38' W 005°53'5 9.4
2017-Aug-06 05:31N 54°41' W 005°48'5 9.9
2017-Aug-06 05:01N 54°43' W 005°40'612.6
2017-Aug-06 04:30N 54°49' W 005°35'815.3
2017-Aug-06 04:00N 54°56' W 005°35'815.0
2017-Aug-06 03:30N 55°03' W 005°41'816.0
2017-Aug-06 03:00N 55°09' W 005°50'  
Track history (hours):
 
Tides and Currents Weather Stations Pressure Air Temp Water Temp Dewpoint Dewpoint Depression Visibility Wind Speed Wind Dir Waves Ship Positions

Oriana (Bermuda)

Last reported at 2017-Aug-16 03:00 UTC. Time now 2017-Aug-16 21:38 UTC.
Position N 63°36' W 022°36'.

Length 261 m; beam 32.2 m; draft 8.2 m.

Type: Ship. MMSI: 310529000.

Wind from 020 at 8 knots

Barometer 1002.5 mb
Air temperature 11.2 ° C
Visibility: greater than 10.8 NM
Dewpoint 8.8 ° C
Water temperature 11.0 ° C

Date/timePositionNaut miles runAvg speedWind from/ knotsBaromVisibWave heightAir tempDewpointWater temp
2017-Aug-16 03:00N 63°36' W 022°36'6716.8 020 / 81002.510.8 11.2 8.811.0
2017-Aug-15 23:00N 63°00' W 020°30'14918.6 070 / 141002.510.8 11.5 9.512.0
2017-Aug-15 15:00N 61°36' W 016°06'41310.3 190 / 51003.310.8 12.010.112.0
2017-Aug-13 23:00N 56°19' W 007°34'1120.0
2017-Aug-13 22:28N 56°09' W 007°31'1020.6
2017-Aug-13 22:00N 56°02' W 007°19'1020.3
2017-Aug-13 21:30N 55°54' W 007°07'1020.2
2017-Aug-13 21:00N 55°47' W 006°55'1020.7
2017-Aug-13 20:30N 55°39' W 006°42'1121.2
2017-Aug-13 20:00N 55°32' W 006°29'1121.9
2017-Aug-13 19:30N 55°26' W 006°12'1121.9
2017-Aug-13 19:00N 55°20' W 005°57'1223.3
2017-Aug-13 18:30N 55°10' W 005°46'1122.6
2017-Aug-13 18:00N 55°00' W 005°37'1121.5
2017-Aug-13 17:30N 54°49' W 005°36'917.4
2017-Aug-13 17:00N 54°42' W 005°44'611.0
2017-Aug-13 16:28N 54°38' W 005°52'2 2.8
2017-Aug-13 15:52N 54°37' W 005°54'0 0.0
2017-Aug-13 15:25N 54°37' W 005°54'0 0.0
2017-Aug-13 14:43N 54°37' W 005°54'0 0.0
2017-Aug-13 14:25N 54°37' W 005°54'0 0.0
2017-Aug-13 11:40N 54°37' W 005°54'0 0.0
2017-Aug-13 10:48N 54°37' W 005°54'0 0.0
2017-Aug-13 10:27N 54°37' W 005°54'0 0.0
2017-Aug-13 08:42N 54°37' W 005°54'0 0.0
2017-Aug-13 08:12N 54°37' W 005°54'0 0.0
2017-Aug-13 08:00N 54°37' W 005°54'0 0.0
2017-Aug-13 07:27N 54°37' W 005°54'0 0.0
2017-Aug-13 06:45N 54°37' W 005°54'0 0.6
2017-Aug-13 06:25N 54°37' W 005°54'3 6.1
2017-Aug-13 06:00N 54°39' W 005°51'510.7
2017-Aug-13 05:30N 54°42' W 005°44'612.8
2017-Aug-13 05:01N 54°44' W 005°34'714.5
2017-Aug-13 04:31N 54°42' W 005°22'918.0
2017-Aug-13 04:01N 54°33' W 005°16'917.2
2017-Aug-13 03:31N 54°25' W 005°13'816.8
2017-Aug-13 03:00N 54°16' W 005°13'816.7
2017-Aug-13 02:31N 54°08' W 005°15'815.7
2017-Aug-13 02:00N 54°00' W 005°15'612.5
2017-Aug-13 01:30N 53°54' W 005°16'6715.7
2017-Aug-12 21:13N 52°47' W 005°32'618.8
2017-Aug-12 20:55N 52°42' W 005°33'1018.8
2017-Aug-12 20:23N 52°32' W 005°36'1017.7
2017-Aug-12 19:50N 52°22' W 005°37'817.0
2017-Aug-12 19:21N 52°14' W 005°38'716.6
2017-Aug-12 18:57N 52°08' W 005°41'816.1
2017-Aug-12 18:27N 51°60' W 005°44'815.9
2017-Aug-12 17:58N 51°52' W 005°46'2116.3
2017-Aug-12 16:42N 51°32' W 005°53'316.5
2017-Aug-12 16:30N 51°29' W 005°53'916.5
2017-Aug-12 15:57N 51°20' W 005°53'4216.7
2017-Aug-12 13:27N 50°38' W 005°53'1116.5
2017-Aug-12 12:48N 50°27' W 005°53'516.1
2017-Aug-12 12:30N 50°22' W 005°53'714.7
2017-Aug-12 12:01N 50°15' W 005°53'611.4
2017-Aug-12 11:28N 50°09' W 005°53'511.0
2017-Aug-12 11:00N 50°04' W 005°53'49 9.9
2017-Aug-12 06:03N 49°54' W 004°39'112.0
2017-Aug-12 06:00N 49°54' W 004°38'612.1
2017-Aug-12 05:29N 49°54' W 004°29'812.5
2017-Aug-12 04:52N 49°55' W 004°17'512.9
2017-Aug-12 04:30N 49°56' W 004°09'713.3
2017-Aug-12 04:00N 49°56' W 003°59'713.8
2017-Aug-12 03:31N 49°57' W 003°49'713.7
2017-Aug-12 03:01N 49°58' W 003°38'713.7
2017-Aug-12 02:31N 49°58' W 003°27'713.4
2017-Aug-12 02:00N 49°59' W 003°17'713.1
2017-Aug-12 01:31N 49°60' W 003°07'612.6
2017-Aug-12 01:00N 50°01' W 002°57'612.0
2017-Aug-12 00:30N 50°02' W 002°48'611.4
2017-Aug-12 00:00N 50°04' W 002°39'610.5
2017-Aug-11 23:24N 50°06' W 002°30'15 9.2
2017-Aug-11 21:44N 50°13' W 002°09'2 9.3
2017-Aug-11 21:30N 50°15' W 002°07'1710.2
2017-Aug-11 19:50N 50°28' W 001°50'411.2
2017-Aug-11 19:30N 50°31' W 001°47'611.6
2017-Aug-11 19:01N 50°35' W 001°41'612.4
2017-Aug-11 18:30N 50°40' W 001°36'715.0
2017-Aug-11 18:01N 50°44' W 001°26'612.8
2017-Aug-11 17:30N 50°48' W 001°18'510.3
2017-Aug-11 17:00N 50°52' W 001°23'3 6.1
2017-Aug-11 16:30N 50°54' W 001°26'0 0.6
2017-Aug-11 15:55N 50°54' W 001°26'0 0.0
2017-Aug-11 15:25N 50°54' W 001°26'0 0.0
2017-Aug-11 14:55N 50°54' W 001°26'0 0.0
2017-Aug-11 13:58N 50°54' W 001°26'0 0.0
2017-Aug-11 13:22N 50°54' W 001°26'0 0.0
2017-Aug-11 12:55N 50°54' W 001°26'0 0.0
2017-Aug-11 12:25N 50°54' W 001°26'0 0.0
2017-Aug-11 11:55N 50°54' W 001°26'0 0.0
2017-Aug-11 11:19N 50°54' W 001°26'0 0.0
2017-Aug-11 10:55N 50°54' W 001°26'0 0.0
2017-Aug-11 10:25N 50°54' W 001°26'0 0.0
2017-Aug-11 09:55N 50°54' W 001°26'0 0.0
2017-Aug-11 09:25N 50°54' W 001°26'0 0.0
2017-Aug-11 08:49N 50°54' W 001°26'0 0.0
2017-Aug-11 08:13N 50°54' W 001°26'0 0.0
2017-Aug-11 07:58N 50°54' W 001°26'0 0.0
2017-Aug-11 07:16N 50°54' W 001°26'0 0.0
2017-Aug-11 06:55N 50°54' W 001°26'0 0.0
2017-Aug-11 06:25N 50°54' W 001°26'0 0.0
2017-Aug-11 05:55N 50°54' W 001°26'0 0.0
2017-Aug-11 05:25N 50°54' W 001°26'0 0.0
2017-Aug-11 05:00N 50°54' W 001°26'3 5.5
2017-Aug-11 04:31N 50°52' W 001°23'510.8
2017-Aug-11 04:01N 50°48' W 001°18'510.9
2017-Aug-11 03:31N 50°46' W 001°10'816.6
2017-Aug-11 03:01N 50°42' W 000°58'510.0
2017-Aug-11 02:31N 50°37' W 000°59'713.9
2017-Aug-11 02:00N 50°31' W 001°03'510.6
2017-Aug-11 01:30N 50°28' W 001°11'610.5
2017-Aug-11 00:59N 50°26' W 001°18'610.8
2017-Aug-11 00:23N 50°23' W 001°27'411.6
2017-Aug-11 00:00N 50°22' W 001°34'912.5
2017-Aug-10 23:17N 50°20' W 001°48'413.0
2017-Aug-10 23:00N 50°19' W 001°53'812.9
2017-Aug-10 22:24N 50°16' W 002°05'410.2
2017-Aug-10 22:00N 50°12' W 002°05'510.3
2017-Aug-10 21:30N 50°07' W 002°05'611.3
2017-Aug-10 21:00N 50°01' W 002°07'612.7
2017-Aug-10 20:30N 49°58' W 002°16'713.2
2017-Aug-10 19:59N 49°56' W 002°26'612.5
2017-Aug-10 19:31N 49°55' W 002°35'612.0
2017-Aug-10 19:00N 49°53' W 002°44'611.6
2017-Aug-10 18:30N 49°51' W 002°52'611.3
2017-Aug-10 18:00N 49°49' W 003°01'5 9.8
2017-Aug-10 17:30N 49°45' W 003°04'5 9.7
2017-Aug-10 17:00N 49°40' W 003°04'5 9.6
2017-Aug-10 16:30N 49°35' W 003°04'5 9.1
2017-Aug-10 16:01N 49°31' W 003°04'5 9.1
2017-Aug-10 15:30N 49°26' W 003°04'9 0.7
2017-Aug-10 02:58N 49°18' W 003°08'611.4
2017-Aug-10 02:28N 49°18' W 003°17'810.8
2017-Aug-10 01:46N 49°18' W 003°29'2010.3
2017-Aug-09 23:49N 49°18' W 003°59'3 9.2
2017-Aug-09 23:29N 49°18' W 004°04'5 9.2
2017-Aug-09 22:59N 49°17' W 004°11'82 8.0
2017-Aug-09 12:48N 49°58' W 006°01'511.5
2017-Aug-09 12:21N 50°03' W 006°01'511.9
2017-Aug-09 11:57N 50°08' W 006°01'712.0
2017-Aug-09 11:23N 50°15' W 006°01'512.2
2017-Aug-09 11:00N 50°19' W 006°01'612.1
2017-Aug-09 10:30N 50°25' W 006°01'612.0
2017-Aug-09 09:58N 50°32' W 006°01'511.7
2017-Aug-09 09:30N 50°37' W 006°01'611.7
2017-Aug-09 09:00N 50°43' W 006°01'611.5
2017-Aug-09 08:29N 50°49' W 006°01'511.3
2017-Aug-09 08:00N 50°54' W 006°01'711.0
2017-Aug-09 07:20N 51°02' W 006°01'38 8.4
2017-Aug-09 02:53N 51°31' W 006°38'411.5
2017-Aug-09 02:30N 51°31' W 006°45'610.3
2017-Aug-09 01:55N 51°29' W 006°54'18 8.1
2017-Aug-08 23:42N 51°14' W 007°10'210.9
2017-Aug-08 23:30N 51°14' W 007°13'364706.0
2017-Aug-08 23:00N 57°18' W 007°36'3642598.3 340 / 221019.210.8 14.511.716.0
2017-Aug-08 22:51N 51°14' W 007°25'410.5
2017-Aug-08 22:30N 51°16' W 007°30'611.5
2017-Aug-08 22:00N 51°20' W 007°36'611.6
2017-Aug-08 21:30N 51°25' W 007°42'611.4
2017-Aug-08 21:00N 51°29' W 007°48'611.5
2017-Aug-08 20:30N 51°33' W 007°55'611.5
2017-Aug-08 20:00N 51°37' W 008°02'611.5
2017-Aug-08 19:30N 51°41' W 008°08'611.7
2017-Aug-08 19:00N 51°45' W 008°15'511.0
2017-Aug-08 18:31N 51°50' W 008°16'2 3.0
2017-Aug-08 18:00N 51°51' W 008°18'0 0.0
2017-Aug-08 17:30N 51°51' W 008°18'0 0.0
2017-Aug-08 17:00N 51°51' W 008°18'0 0.0
2017-Aug-08 16:30N 51°51' W 008°18'0 0.0
2017-Aug-08 15:59N 51°51' W 008°18'0 0.0
2017-Aug-08 15:29N 51°51' W 008°18'0 0.0
2017-Aug-08 14:59N 51°51' W 008°18'0 0.0
2017-Aug-08 14:28N 51°51' W 008°18'0 0.0
2017-Aug-08 13:58N 51°51' W 008°18'0 0.0
2017-Aug-08 13:28N 51°51' W 008°18'0 0.0
2017-Aug-08 12:58N 51°51' W 008°18'0 0.0
2017-Aug-08 12:28N 51°51' W 008°18'0 0.0
2017-Aug-08 11:58N 51°51' W 008°18'0 0.0
2017-Aug-08 11:28N 51°51' W 008°18'0 0.0
2017-Aug-08 10:58N 51°51' W 008°18'0 0.0
2017-Aug-08 10:28N 51°51' W 008°18'0 0.0
2017-Aug-08 09:58N 51°51' W 008°18'0 0.0
2017-Aug-08 09:28N 51°51' W 008°18'0 0.0
2017-Aug-08 09:00N 51°51' W 008°18'0 0.0
2017-Aug-08 08:27N 51°51' W 008°18'0 0.0
2017-Aug-08 07:54N 51°51' W 008°18'0 0.0
2017-Aug-08 07:30N 51°51' W 008°18'2 3.2
2017-Aug-08 07:00N 51°50' W 008°16'612.0
2017-Aug-08 06:31N 51°44' W 008°15'4 8.9
2017-Aug-08 06:00N 51°42' W 008°09'714.8
2017-Aug-08 05:30N 51°44' W 007°57'816.5
2017-Aug-08 05:00N 51°46' W 007°44'816.5
2017-Aug-08 04:30N 51°48' W 007°31'816.3
2017-Aug-08 04:00N 51°50' W 007°19'816.1
2017-Aug-08 03:30N 51°52' W 007°06'816.6
2017-Aug-08 03:00N 51°54' W 006°53'816.9
2017-Aug-08 02:30N 51°57' W 006°40'1017.3
2017-Aug-08 01:54N 52°02' W 006°25'818.8
2017-Aug-08 01:30N 52°06' W 006°15'1122.0
2017-Aug-08 01:00N 52°15' W 006°04'1322.1
2017-Aug-08 00:26N 52°26' W 005°54'1021.4
2017-Aug-07 23:59N 52°35' W 005°48'1020.5
2017-Aug-07 23:29N 52°44' W 005°43'76 3.0
2017-Aug-06 22:11N 53°60' W 005°24'628.4
2017-Aug-06 22:00N 53°54' W 005°24'1255.3 220 / 291014.810.8 14.511.714.0
2017-Aug-06 21:46N 54°06' W 005°19'412.1
2017-Aug-06 21:27N 54°09' W 005°16'612.7
2017-Aug-06 21:00N 54°15' W 005°15'713.1
2017-Aug-06 20:31N 54°21' W 005°14'713.5
2017-Aug-06 20:01N 54°28' W 005°14'713.8
2017-Aug-06 19:30N 54°35' W 005°16'714.1
2017-Aug-06 19:00N 54°42' W 005°19'612.4
2017-Aug-06 18:30N 54°44' W 005°29'612.9
2017-Aug-06 18:00N 54°43' W 005°40'510.5
2017-Aug-06 17:31N 54°41' W 005°49'5 7.9
2017-Aug-06 16:54N 54°37' W 005°54'0 0.0
2017-Aug-06 16:12N 54°37' W 005°54'0 0.0
2017-Aug-06 16:00N 54°37' W 005°54'0 0.0
2017-Aug-06 15:24N 54°37' W 005°54'0 0.0
2017-Aug-06 14:54N 54°37' W 005°54'0 0.0
2017-Aug-06 14:30N 54°37' W 005°54'0 0.0
2017-Aug-06 13:56N 54°37' W 005°54'0 0.0
2017-Aug-06 13:29N 54°37' W 005°54'0 0.0
2017-Aug-06 13:00N 54°37' W 005°54'0 0.0
2017-Aug-06 12:28N 54°37' W 005°54'0 0.0
2017-Aug-06 11:56N 54°37' W 005°54'0 0.0
2017-Aug-06 11:27N 54°37' W 005°54'0 0.0
2017-Aug-06 10:59N 54°37' W 005°54'0 0.0
2017-Aug-06 10:24N 54°37' W 005°54'0 0.0
2017-Aug-06 09:54N 54°37' W 005°54'0 0.0
2017-Aug-06 09:11N 54°37' W 005°54'0 0.0
2017-Aug-06 09:00N 54°37' W 005°54'0 0.0
2017-Aug-06 08:29N 54°37' W 005°54'0 0.0
2017-Aug-06 07:46N 54°37' W 005°54'0 0.0
2017-Aug-06 07:25N 54°37' W 005°54'0 0.0
2017-Aug-06 06:57N 54°37' W 005°54'0 0.5
2017-Aug-06 06:24N 54°37' W 005°54'1 1.5
2017-Aug-06 06:00N 54°38' W 005°53'5 9.4
2017-Aug-06 05:31N 54°41' W 005°48'5 9.9
2017-Aug-06 05:01N 54°43' W 005°40'612.6
2017-Aug-06 04:30N 54°49' W 005°35'815.3
2017-Aug-06 04:00N 54°56' W 005°35'815.0
2017-Aug-06 03:30N 55°03' W 005°41'816.0
2017-Aug-06 03:00N 55°09' W 005°50'  

Dump ship's entire track history